sensor_id;sensor_type;location;lat;lon;timestamp;P1;durP1;ratioP1;P2;durP2;ratioP2
422;SDS011;198;48.752;9.180;2023-03-21T00:01:54;4.50;;;2.60;;
422;SDS011;198;48.752;9.180;2023-03-21T00:04:20;1.90;;;1.80;;
422;SDS011;198;48.752;9.180;2023-03-21T00:06:47;5.93;;;2.40;;
422;SDS011;198;48.752;9.180;2023-03-21T00:09:12;4.73;;;1.47;;
422;SDS011;198;48.752;9.180;2023-03-21T00:11:38;2.90;;;2.10;;
422;SDS011;198;48.752;9.180;2023-03-21T00:14:04;3.80;;;2.10;;
422;SDS011;198;48.752;9.180;2023-03-21T00:16:32;3.67;;;2.20;;
422;SDS011;198;48.752;9.180;2023-03-21T00:18:59;3.87;;;2.00;;
422;SDS011;198;48.752;9.180;2023-03-21T00:21:27;4.27;;;2.47;;
422;SDS011;198;48.752;9.180;2023-03-21T00:23:56;9.40;;;2.60;;
422;SDS011;198;48.752;9.180;2023-03-21T00:26:22;3.90;;;2.43;;
422;SDS011;198;48.752;9.180;2023-03-21T00:28:48;4.80;;;2.90;;
422;SDS011;198;48.752;9.180;2023-03-21T00:31:14;4.53;;;2.80;;
422;SDS011;198;48.752;9.180;2023-03-21T00:33:39;4.30;;;2.83;;
422;SDS011;198;48.752;9.180;2023-03-21T00:36:06;5.37;;;3.17;;
422;SDS011;198;48.752;9.180;2023-03-21T00:38:33;5.40;;;3.33;;
422;SDS011;198;48.752;9.180;2023-03-21T00:41:02;5.23;;;3.10;;
422;SDS011;198;48.752;9.180;2023-03-21T00:43:28;4.33;;;2.73;;
422;SDS011;198;48.752;9.180;2023-03-21T00:45:54;4.13;;;3.40;;
422;SDS011;198;48.752;9.180;2023-03-21T00:48:22;5.23;;;3.37;;
422;SDS011;198;48.752;9.180;2023-03-21T00:50:49;5.87;;;3.33;;
422;SDS011;198;48.752;9.180;2023-03-21T00:53:16;3.13;;;2.20;;
422;SDS011;198;48.752;9.180;2023-03-21T00:55:42;4.73;;;2.93;;
422;SDS011;198;48.752;9.180;2023-03-21T00:58:08;3.00;;;2.33;;
422;SDS011;198;48.752;9.180;2023-03-21T01:00:34;4.20;;;2.97;;
422;SDS011;198;48.752;9.180;2023-03-21T01:03:01;5.13;;;2.97;;
422;SDS011;198;48.752;9.180;2023-03-21T01:05:32;3.70;;;2.40;;
422;SDS011;198;48.752;9.180;2023-03-21T01:08:17;3.13;;;2.50;;
422;SDS011;198;48.752;9.180;2023-03-21T01:10:45;5.50;;;2.70;;
422;SDS011;198;48.752;9.180;2023-03-21T01:13:13;5.37;;;3.37;;
422;SDS011;198;48.752;9.180;2023-03-21T01:15:43;8.13;;;3.33;;
422;SDS011;198;48.752;9.180;2023-03-21T01:18:11;3.03;;;2.50;;
422;SDS011;198;48.752;9.180;2023-03-21T01:20:39;4.67;;;2.90;;
422;SDS011;198;48.752;9.180;2023-03-21T01:23:05;6.23;;;3.20;;
422;SDS011;198;48.752;9.180;2023-03-21T01:25:31;6.20;;;2.83;;
422;SDS011;198;48.752;9.180;2023-03-21T01:27:57;4.63;;;3.00;;
422;SDS011;198;48.752;9.180;2023-03-21T01:30:22;3.70;;;2.40;;
422;SDS011;198;48.752;9.180;2023-03-21T01:32:48;4.27;;;2.20;;
422;SDS011;198;48.752;9.180;2023-03-21T01:35:14;2.70;;;2.10;;
422;SDS011;198;48.752;9.180;2023-03-21T01:37:39;3.00;;;1.90;;
422;SDS011;198;48.752;9.180;2023-03-21T01:40:05;2.27;;;1.97;;
422;SDS011;198;48.752;9.180;2023-03-21T01:42:36;2.87;;;1.90;;
422;SDS011;198;48.752;9.180;2023-03-21T01:45:04;5.00;;;1.83;;
422;SDS011;198;48.752;9.180;2023-03-21T01:47:50;2.83;;;2.20;;
422;SDS011;198;48.752;9.180;2023-03-21T01:50:16;4.17;;;2.20;;
422;SDS011;198;48.752;9.180;2023-03-21T01:52:46;2.87;;;2.07;;
422;SDS011;198;48.752;9.180;2023-03-21T01:55:14;7.20;;;2.50;;
422;SDS011;198;48.752;9.180;2023-03-21T01:57:44;3.57;;;2.07;;
422;SDS011;198;48.752;9.180;2023-03-21T02:00:16;4.37;;;2.10;;
422;SDS011;198;48.752;9.180;2023-03-21T02:02:44;1.57;;;1.57;;
422;SDS011;198;48.752;9.180;2023-03-21T02:05:33;2.40;;;1.90;;
422;SDS011;198;48.752;9.180;2023-03-21T02:08:04;11.73;;;2.13;;
422;SDS011;198;48.752;9.180;2023-03-21T02:10:30;2.40;;;1.87;;
422;SDS011;198;48.752;9.180;2023-03-21T02:12:57;2.13;;;1.70;;
422;SDS011;198;48.752;9.180;2023-03-21T02:15:33;4.70;;;2.07;;
422;SDS011;198;48.752;9.180;2023-03-21T02:21:08;2.37;;;1.77;;
422;SDS011;198;48.752;9.180;2023-03-21T02:26:45;2.73;;;2.23;;
422;SDS011;198;48.752;9.180;2023-03-21T02:40:34;3.00;;;2.20;;
422;SDS011;198;48.752;9.180;2023-03-21T02:43:27;4.50;;;2.53;;
422;SDS011;198;48.752;9.180;2023-03-21T02:46:05;6.77;;;1.70;;
422;SDS011;198;48.752;9.180;2023-03-21T02:48:37;2.10;;;1.73;;
422;SDS011;198;48.752;9.180;2023-03-21T02:51:08;5.57;;;2.27;;
422;SDS011;198;48.752;9.180;2023-03-21T02:53:38;3.13;;;1.57;;
422;SDS011;198;48.752;9.180;2023-03-21T02:56:06;2.73;;;2.17;;
422;SDS011;198;48.752;9.180;2023-03-21T02:58:34;5.30;;;2.50;;
422;SDS011;198;48.752;9.180;2023-03-21T03:01:02;4.57;;;2.50;;
422;SDS011;198;48.752;9.180;2023-03-21T03:03:27;1.80;;;1.70;;
422;SDS011;198;48.752;9.180;2023-03-21T03:05:54;6.37;;;2.90;;
422;SDS011;198;48.752;9.180;2023-03-21T03:16:28;3.17;;;2.73;;
422;SDS011;198;48.752;9.180;2023-03-21T03:19:03;3.60;;;2.53;;
422;SDS011;198;48.752;9.180;2023-03-21T03:21:36;4.33;;;2.73;;
422;SDS011;198;48.752;9.180;2023-03-21T03:24:29;8.30;;;2.93;;
422;SDS011;198;48.752;9.180;2023-03-21T03:27:23;2.90;;;2.43;;
422;SDS011;198;48.752;9.180;2023-03-21T03:29:56;3.60;;;2.43;;
422;SDS011;198;48.752;9.180;2023-03-21T03:32:25;4.30;;;2.83;;
422;SDS011;198;48.752;9.180;2023-03-21T03:35:02;10.13;;;2.57;;
422;SDS011;198;48.752;9.180;2023-03-21T03:37:31;6.53;;;2.47;;
422;SDS011;198;48.752;9.180;2023-03-21T03:40:02;3.30;;;2.23;;
422;SDS011;198;48.752;9.180;2023-03-21T03:42:37;8.00;;;2.47;;
422;SDS011;198;48.752;9.180;2023-03-21T03:45:09;5.00;;;3.10;;
422;SDS011;198;48.752;9.180;2023-03-21T03:48:23;3.90;;;2.50;;
422;SDS011;198;48.752;9.180;2023-03-21T03:52:51;5.00;;;2.23;;
422;SDS011;198;48.752;9.180;2023-03-21T03:55:21;4.30;;;2.40;;
422;SDS011;198;48.752;9.180;2023-03-21T03:57:50;7.37;;;3.00;;
422;SDS011;198;48.752;9.180;2023-03-21T04:00:17;5.07;;;3.30;;
422;SDS011;198;48.752;9.180;2023-03-21T04:02:43;5.87;;;3.03;;
422;SDS011;198;48.752;9.180;2023-03-21T04:05:09;4.03;;;2.50;;
422;SDS011;198;48.752;9.180;2023-03-21T04:07:35;6.10;;;2.50;;
422;SDS011;198;48.752;9.180;2023-03-21T04:10:01;7.53;;;3.10;;
422;SDS011;198;48.752;9.180;2023-03-21T04:12:27;4.90;;;2.80;;
422;SDS011;198;48.752;9.180;2023-03-21T04:14:52;4.47;;;2.73;;
422;SDS011;198;48.752;9.180;2023-03-21T04:17:18;5.70;;;2.83;;
422;SDS011;198;48.752;9.180;2023-03-21T04:19:44;3.37;;;2.20;;
422;SDS011;198;48.752;9.180;2023-03-21T04:22:10;4.43;;;2.57;;
422;SDS011;198;48.752;9.180;2023-03-21T04:24:36;3.40;;;2.20;;
422;SDS011;198;48.752;9.180;2023-03-21T04:27:03;5.50;;;2.73;;
422;SDS011;198;48.752;9.180;2023-03-21T04:29:30;4.10;;;2.90;;
422;SDS011;198;48.752;9.180;2023-03-21T04:31:56;3.60;;;2.20;;
422;SDS011;198;48.752;9.180;2023-03-21T04:34:21;5.17;;;2.80;;
422;SDS011;198;48.752;9.180;2023-03-21T04:36:48;6.07;;;2.40;;
422;SDS011;198;48.752;9.180;2023-03-21T04:39:14;3.93;;;2.70;;
422;SDS011;198;48.752;9.180;2023-03-21T04:41:41;3.30;;;2.40;;
422;SDS011;198;48.752;9.180;2023-03-21T04:44:08;3.70;;;2.70;;
422;SDS011;198;48.752;9.180;2023-03-21T04:46:34;5.60;;;2.73;;
422;SDS011;198;48.752;9.180;2023-03-21T04:49:00;3.83;;;2.90;;
422;SDS011;198;48.752;9.180;2023-03-21T04:51:26;5.07;;;3.63;;
422;SDS011;198;48.752;9.180;2023-03-21T04:53:51;3.87;;;2.73;;
422;SDS011;198;48.752;9.180;2023-03-21T04:56:21;3.37;;;2.30;;
422;SDS011;198;48.752;9.180;2023-03-21T04:58:54;4.03;;;2.43;;
422;SDS011;198;48.752;9.180;2023-03-21T05:01:20;5.30;;;2.97;;
422;SDS011;198;48.752;9.180;2023-03-21T05:03:45;6.27;;;3.50;;
422;SDS011;198;48.752;9.180;2023-03-21T05:06:11;4.43;;;2.30;;
422;SDS011;198;48.752;9.180;2023-03-21T05:08:36;5.03;;;2.90;;
422;SDS011;198;48.752;9.180;2023-03-21T05:11:03;4.83;;;2.47;;
422;SDS011;198;48.752;9.180;2023-03-21T05:13:28;3.43;;;2.80;;
422;SDS011;198;48.752;9.180;2023-03-21T05:15:54;8.00;;;3.30;;
422;SDS011;198;48.752;9.180;2023-03-21T05:18:20;3.60;;;2.73;;
422;SDS011;198;48.752;9.180;2023-03-21T05:20:49;7.73;;;2.50;;
422;SDS011;198;48.752;9.180;2023-03-21T05:23:18;3.17;;;2.70;;
422;SDS011;198;48.752;9.180;2023-03-21T05:25:45;3.80;;;2.70;;
422;SDS011;198;48.752;9.180;2023-03-21T05:28:11;4.50;;;2.97;;
422;SDS011;198;48.752;9.180;2023-03-21T05:30:36;5.70;;;3.40;;
422;SDS011;198;48.752;9.180;2023-03-21T05:33:02;5.13;;;2.10;;
422;SDS011;198;48.752;9.180;2023-03-21T05:35:28;4.40;;;2.83;;
422;SDS011;198;48.752;9.180;2023-03-21T05:37:54;3.40;;;2.70;;
422;SDS011;198;48.752;9.180;2023-03-21T05:40:19;5.80;;;3.13;;
422;SDS011;198;48.752;9.180;2023-03-21T05:42:45;6.73;;;3.50;;
422;SDS011;198;48.752;9.180;2023-03-21T05:45:12;7.83;;;2.40;;
422;SDS011;198;48.752;9.180;2023-03-21T05:47:38;4.90;;;3.07;;
422;SDS011;198;48.752;9.180;2023-03-21T05:50:04;3.80;;;2.67;;
422;SDS011;198;48.752;9.180;2023-03-21T05:52:30;5.70;;;3.07;;
422;SDS011;198;48.752;9.180;2023-03-21T05:54:56;9.40;;;3.77;;
422;SDS011;198;48.752;9.180;2023-03-21T05:57:21;6.13;;;2.90;;
422;SDS011;198;48.752;9.180;2023-03-21T05:59:47;5.70;;;2.57;;
422;SDS011;198;48.752;9.180;2023-03-21T06:02:13;4.27;;;2.93;;
422;SDS011;198;48.752;9.180;2023-03-21T06:04:38;4.10;;;2.53;;
422;SDS011;198;48.752;9.180;2023-03-21T06:07:04;4.17;;;2.87;;
422;SDS011;198;48.752;9.180;2023-03-21T06:09:29;11.30;;;3.93;;
422;SDS011;198;48.752;9.180;2023-03-21T06:11:55;5.63;;;3.30;;
422;SDS011;198;48.752;9.180;2023-03-21T06:14:21;9.93;;;2.93;;
422;SDS011;198;48.752;9.180;2023-03-21T06:16:47;4.73;;;2.67;;
422;SDS011;198;48.752;9.180;2023-03-21T06:19:13;6.10;;;3.40;;
422;SDS011;198;48.752;9.180;2023-03-21T06:21:39;9.70;;;3.00;;
422;SDS011;198;48.752;9.180;2023-03-21T06:24:04;4.23;;;3.07;;
422;SDS011;198;48.752;9.180;2023-03-21T06:26:30;6.80;;;2.77;;
422;SDS011;198;48.752;9.180;2023-03-21T06:28:56;5.97;;;3.50;;
422;SDS011;198;48.752;9.180;2023-03-21T06:31:21;7.13;;;3.00;;
422;SDS011;198;48.752;9.180;2023-03-21T06:33:48;8.87;;;3.67;;
422;SDS011;198;48.752;9.180;2023-03-21T06:36:15;8.60;;;3.93;;
422;SDS011;198;48.752;9.180;2023-03-21T06:38:41;4.23;;;3.27;;
422;SDS011;198;48.752;9.180;2023-03-21T06:41:07;4.07;;;2.60;;
422;SDS011;198;48.752;9.180;2023-03-21T06:43:33;4.10;;;2.60;;
422;SDS011;198;48.752;9.180;2023-03-21T06:45:59;9.23;;;3.60;;
422;SDS011;198;48.752;9.180;2023-03-21T06:48:25;7.20;;;3.20;;
422;SDS011;198;48.752;9.180;2023-03-21T06:50:51;6.73;;;2.90;;
422;SDS011;198;48.752;9.180;2023-03-21T06:53:18;4.60;;;3.33;;
422;SDS011;198;48.752;9.180;2023-03-21T06:55:50;9.33;;;2.90;;
422;SDS011;198;48.752;9.180;2023-03-21T06:58:17;4.97;;;3.00;;
422;SDS011;198;48.752;9.180;2023-03-21T07:00:43;5.13;;;3.63;;
422;SDS011;198;48.752;9.180;2023-03-21T07:03:09;6.57;;;2.93;;
422;SDS011;198;48.752;9.180;2023-03-21T07:05:35;7.50;;;3.87;;
422;SDS011;198;48.752;9.180;2023-03-21T07:08:02;3.47;;;2.67;;
422;SDS011;198;48.752;9.180;2023-03-21T07:10:27;5.70;;;2.60;;
422;SDS011;198;48.752;9.180;2023-03-21T07:12:53;4.90;;;3.00;;
422;SDS011;198;48.752;9.180;2023-03-21T07:15:18;3.20;;;2.20;;
422;SDS011;198;48.752;9.180;2023-03-21T07:17:44;4.50;;;2.70;;
422;SDS011;198;48.752;9.180;2023-03-21T07:20:10;6.87;;;3.33;;
422;SDS011;198;48.752;9.180;2023-03-21T07:22:36;9.37;;;3.20;;
422;SDS011;198;48.752;9.180;2023-03-21T07:25:02;6.40;;;3.50;;
422;SDS011;198;48.752;9.180;2023-03-21T07:27:28;5.37;;;3.20;;
422;SDS011;198;48.752;9.180;2023-03-21T07:29:54;3.50;;;2.60;;
422;SDS011;198;48.752;9.180;2023-03-21T07:32:19;4.20;;;2.57;;
422;SDS011;198;48.752;9.180;2023-03-21T07:34:45;6.03;;;2.80;;
422;SDS011;198;48.752;9.180;2023-03-21T07:37:10;10.20;;;3.87;;
422;SDS011;198;48.752;9.180;2023-03-21T07:39:36;4.50;;;3.30;;
422;SDS011;198;48.752;9.180;2023-03-21T07:42:02;13.27;;;3.20;;
422;SDS011;198;48.752;9.180;2023-03-21T07:44:28;4.50;;;2.53;;
422;SDS011;198;48.752;9.180;2023-03-21T07:46:54;4.30;;;2.20;;
422;SDS011;198;48.752;9.180;2023-03-21T07:49:20;7.67;;;2.40;;
422;SDS011;198;48.752;9.180;2023-03-21T07:51:45;5.40;;;2.97;;
422;SDS011;198;48.752;9.180;2023-03-21T07:54:11;6.17;;;3.80;;
422;SDS011;198;48.752;9.180;2023-03-21T07:56:36;6.23;;;3.43;;
422;SDS011;198;48.752;9.180;2023-03-21T07:59:02;6.13;;;2.93;;
422;SDS011;198;48.752;9.180;2023-03-21T08:01:29;3.57;;;2.50;;
422;SDS011;198;48.752;9.180;2023-03-21T08:03:55;4.50;;;2.43;;
422;SDS011;198;48.752;9.180;2023-03-21T08:06:20;4.63;;;2.40;;
422;SDS011;198;48.752;9.180;2023-03-21T08:08:46;3.00;;;2.50;;
422;SDS011;198;48.752;9.180;2023-03-21T08:11:12;3.23;;;3.00;;
422;SDS011;198;48.752;9.180;2023-03-21T08:13:38;6.20;;;2.20;;
422;SDS011;198;48.752;9.180;2023-03-21T08:16:04;8.83;;;3.20;;
422;SDS011;198;48.752;9.180;2023-03-21T08:18:31;4.40;;;2.70;;
422;SDS011;198;48.752;9.180;2023-03-21T08:20:57;6.87;;;2.50;;
422;SDS011;198;48.752;9.180;2023-03-21T08:23:23;12.00;;;2.47;;
422;SDS011;198;48.752;9.180;2023-03-21T08:25:49;5.00;;;2.37;;
422;SDS011;198;48.752;9.180;2023-03-21T08:28:16;5.27;;;2.63;;
422;SDS011;198;48.752;9.180;2023-03-21T08:30:42;4.10;;;2.30;;
422;SDS011;198;48.752;9.180;2023-03-21T08:33:08;3.33;;;2.30;;
422;SDS011;198;48.752;9.180;2023-03-21T08:35:34;4.33;;;3.07;;
422;SDS011;198;48.752;9.180;2023-03-21T08:38:03;3.80;;;2.30;;
422;SDS011;198;48.752;9.180;2023-03-21T08:40:29;16.43;;;2.10;;
422;SDS011;198;48.752;9.180;2023-03-21T08:42:55;4.53;;;2.17;;
422;SDS011;198;48.752;9.180;2023-03-21T08:45:20;4.57;;;2.53;;
422;SDS011;198;48.752;9.180;2023-03-21T08:47:47;4.00;;;2.40;;
422;SDS011;198;48.752;9.180;2023-03-21T08:50:18;9.50;;;1.77;;
422;SDS011;198;48.752;9.180;2023-03-21T08:52:45;3.20;;;2.03;;
422;SDS011;198;48.752;9.180;2023-03-21T08:55:10;3.07;;;2.00;;
422;SDS011;198;48.752;9.180;2023-03-21T08:57:37;5.43;;;1.90;;
422;SDS011;198;48.752;9.180;2023-03-21T09:00:03;2.90;;;2.00;;
422;SDS011;198;48.752;9.180;2023-03-21T09:02:37;3.30;;;1.77;;
422;SDS011;198;48.752;9.180;2023-03-21T09:05:07;3.20;;;1.50;;
422;SDS011;198;48.752;9.180;2023-03-21T09:07:34;4.20;;;1.83;;
422;SDS011;198;48.752;9.180;2023-03-21T09:10:01;3.30;;;1.70;;
422;SDS011;198;48.752;9.180;2023-03-21T09:12:27;2.60;;;1.37;;
422;SDS011;198;48.752;9.180;2023-03-21T09:14:53;2.00;;;1.47;;
422;SDS011;198;48.752;9.180;2023-03-21T09:17:18;4.20;;;1.30;;
422;SDS011;198;48.752;9.180;2023-03-21T09:19:44;7.67;;;1.40;;
422;SDS011;198;48.752;9.180;2023-03-21T09:22:11;2.73;;;1.00;;
422;SDS011;198;48.752;9.180;2023-03-21T09:24:38;8.90;;;1.37;;
422;SDS011;198;48.752;9.180;2023-03-21T09:27:05;3.57;;;1.73;;
422;SDS011;198;48.752;9.180;2023-03-21T09:29:31;2.90;;;1.40;;
422;SDS011;198;48.752;9.180;2023-03-21T09:31:57;1.33;;;1.23;;
422;SDS011;198;48.752;9.180;2023-03-21T09:34:23;17.23;;;2.57;;
422;SDS011;198;48.752;9.180;2023-03-21T09:36:50;1.77;;;1.60;;
422;SDS011;198;48.752;9.180;2023-03-21T09:39:21;1.60;;;1.60;;
422;SDS011;198;48.752;9.180;2023-03-21T09:45:06;3.87;;;1.50;;
422;SDS011;198;48.752;9.180;2023-03-21T09:47:43;2.40;;;1.60;;
422;SDS011;198;48.752;9.180;2023-03-21T09:50:21;4.63;;;1.60;;
422;SDS011;198;48.752;9.180;2023-03-21T09:55:23;1.80;;;1.40;;
422;SDS011;198;48.752;9.180;2023-03-21T09:58:12;2.40;;;1.40;;
422;SDS011;198;48.752;9.180;2023-03-21T10:00:56;8.57;;;1.83;;
422;SDS011;198;48.752;9.180;2023-03-21T10:03:34;2.00;;;1.30;;
422;SDS011;198;48.752;9.180;2023-03-21T10:06:01;3.97;;;1.60;;
422;SDS011;198;48.752;9.180;2023-03-21T10:08:31;1.37;;;1.33;;
422;SDS011;198;48.752;9.180;2023-03-21T10:11:23;2.77;;;1.47;;
422;SDS011;198;48.752;9.180;2023-03-21T10:13:53;1.90;;;1.20;;
422;SDS011;198;48.752;9.180;2023-03-21T10:16:27;3.43;;;1.80;;
422;SDS011;198;48.752;9.180;2023-03-21T10:18:59;2.60;;;1.43;;
422;SDS011;198;48.752;9.180;2023-03-21T10:21:32;2.50;;;1.53;;
422;SDS011;198;48.752;9.180;2023-03-21T10:23:57;2.10;;;1.70;;
422;SDS011;198;48.752;9.180;2023-03-21T10:26:24;1.97;;;1.37;;
422;SDS011;198;48.752;9.180;2023-03-21T10:28:53;2.40;;;1.50;;
422;SDS011;198;48.752;9.180;2023-03-21T10:31:22;3.63;;;1.53;;
422;SDS011;198;48.752;9.180;2023-03-21T10:33:50;3.03;;;1.53;;
422;SDS011;198;48.752;9.180;2023-03-21T10:36:21;1.63;;;1.50;;
422;SDS011;198;48.752;9.180;2023-03-21T10:38:57;1.67;;;1.40;;
422;SDS011;198;48.752;9.180;2023-03-21T10:41:26;1.80;;;1.10;;
422;SDS011;198;48.752;9.180;2023-03-21T10:44:09;1.87;;;1.33;;
422;SDS011;198;48.752;9.180;2023-03-21T10:46:38;3.70;;;1.20;;
422;SDS011;198;48.752;9.180;2023-03-21T10:49:18;1.70;;;1.57;;
422;SDS011;198;48.752;9.180;2023-03-21T10:51:45;1.90;;;1.50;;
422;SDS011;198;48.752;9.180;2023-03-21T10:54:13;2.33;;;1.53;;
422;SDS011;198;48.752;9.180;2023-03-21T10:57:15;1.60;;;1.10;;
422;SDS011;198;48.752;9.180;2023-03-21T10:59:46;2.20;;;1.40;;
422;SDS011;198;48.752;9.180;2023-03-21T11:02:25;2.60;;;1.30;;
422;SDS011;198;48.752;9.180;2023-03-21T11:05:03;1.70;;;1.20;;
422;SDS011;198;48.752;9.180;2023-03-21T11:07:31;2.30;;;1.37;;
422;SDS011;198;48.752;9.180;2023-03-21T11:09:58;2.10;;;1.27;;
422;SDS011;198;48.752;9.180;2023-03-21T11:12:35;4.10;;;1.53;;
422;SDS011;198;48.752;9.180;2023-03-21T11:15:13;1.17;;;1.17;;
422;SDS011;198;48.752;9.180;2023-03-21T11:17:57;2.07;;;1.30;;
422;SDS011;198;48.752;9.180;2023-03-21T11:20:24;3.90;;;1.50;;
422;SDS011;198;48.752;9.180;2023-03-21T11:22:53;1.70;;;0.90;;
422;SDS011;198;48.752;9.180;2023-03-21T11:25:36;0.90;;;0.80;;
422;SDS011;198;48.752;9.180;2023-03-21T11:28:05;1.37;;;1.10;;
422;SDS011;198;48.752;9.180;2023-03-21T11:30:36;3.40;;;1.30;;
422;SDS011;198;48.752;9.180;2023-03-21T11:33:12;2.20;;;1.30;;
422;SDS011;198;48.752;9.180;2023-03-21T11:35:38;3.50;;;1.30;;
422;SDS011;198;48.752;9.180;2023-03-21T11:38:04;14.23;;;1.80;;
422;SDS011;198;48.752;9.180;2023-03-21T11:40:56;3.03;;;1.20;;
422;SDS011;198;48.752;9.180;2023-03-21T11:43:30;1.10;;;1.00;;
422;SDS011;198;48.752;9.180;2023-03-21T11:46:05;2.37;;;1.30;;
422;SDS011;198;48.752;9.180;2023-03-21T11:48:40;1.07;;;0.97;;
422;SDS011;198;48.752;9.180;2023-03-21T11:51:56;1.77;;;1.00;;
422;SDS011;198;48.752;9.180;2023-03-21T11:54:20;2.83;;;1.17;;
422;SDS011;198;48.752;9.180;2023-03-21T11:57:18;4.23;;;2.23;;
422;SDS011;198;48.752;9.180;2023-03-21T12:00:09;1.73;;;0.90;;
422;SDS011;198;48.752;9.180;2023-03-21T12:05:35;1.83;;;1.17;;
422;SDS011;198;48.752;9.180;2023-03-21T12:16:10;4.00;;;1.10;;
422;SDS011;198;48.752;9.180;2023-03-21T12:24:49;3.43;;;0.93;;
422;SDS011;198;48.752;9.180;2023-03-21T12:27:23;5.50;;;1.27;;
422;SDS011;198;48.752;9.180;2023-03-21T12:29:59;3.70;;;1.33;;
422;SDS011;198;48.752;9.180;2023-03-21T12:32:40;4.13;;;1.60;;
422;SDS011;198;48.752;9.180;2023-03-21T12:35:22;8.47;;;1.53;;
422;SDS011;198;48.752;9.180;2023-03-21T12:40:46;1.90;;;1.33;;
422;SDS011;198;48.752;9.180;2023-03-21T12:46:08;3.03;;;1.10;;
422;SDS011;198;48.752;9.180;2023-03-21T12:51:20;6.40;;;2.33;;
422;SDS011;198;48.752;9.180;2023-03-21T12:56:21;5.80;;;1.13;;
422;SDS011;198;48.752;9.180;2023-03-21T13:01:58;2.40;;;1.40;;
422;SDS011;198;48.752;9.180;2023-03-21T13:07:00;1.80;;;1.70;;
422;SDS011;198;48.752;9.180;2023-03-21T13:09:34;1.60;;;1.10;;
422;SDS011;198;48.752;9.180;2023-03-21T13:12:13;3.87;;;1.43;;
422;SDS011;198;48.752;9.180;2023-03-21T13:14:59;2.90;;;1.30;;
422;SDS011;198;48.752;9.180;2023-03-21T13:20:31;1.80;;;1.33;;
422;SDS011;198;48.752;9.180;2023-03-21T13:23:05;1.23;;;1.13;;
422;SDS011;198;48.752;9.180;2023-03-21T13:25:32;3.37;;;1.60;;
422;SDS011;198;48.752;9.180;2023-03-21T13:28:03;3.13;;;1.40;;
422;SDS011;198;48.752;9.180;2023-03-21T13:30:29;2.40;;;1.37;;
422;SDS011;198;48.752;9.180;2023-03-21T13:33:06;1.47;;;1.20;;
422;SDS011;198;48.752;9.180;2023-03-21T13:35:37;3.43;;;1.30;;
422;SDS011;198;48.752;9.180;2023-03-21T13:38:11;1.90;;;1.43;;
422;SDS011;198;48.752;9.180;2023-03-21T13:40:47;1.10;;;1.00;;
422;SDS011;198;48.752;9.180;2023-03-21T13:46:12;2.40;;;1.30;;
422;SDS011;198;48.752;9.180;2023-03-21T13:59:16;1.87;;;1.50;;
422;SDS011;198;48.752;9.180;2023-03-21T14:02:17;1.50;;;1.20;;
422;SDS011;198;48.752;9.180;2023-03-21T14:05:03;1.80;;;0.90;;
422;SDS011;198;48.752;9.180;2023-03-21T14:07:41;1.10;;;1.00;;
422;SDS011;198;48.752;9.180;2023-03-21T14:13:04;1.10;;;1.10;;
422;SDS011;198;48.752;9.180;2023-03-21T14:15:39;0.90;;;0.80;;
422;SDS011;198;48.752;9.180;2023-03-21T14:18:12;1.63;;;0.80;;
422;SDS011;198;48.752;9.180;2023-03-21T14:20:40;1.03;;;1.00;;
422;SDS011;198;48.752;9.180;2023-03-21T14:23:07;0.93;;;0.90;;
422;SDS011;198;48.752;9.180;2023-03-21T14:25:37;1.10;;;1.00;;
422;SDS011;198;48.752;9.180;2023-03-21T14:28:07;2.00;;;1.00;;
422;SDS011;198;48.752;9.180;2023-03-21T14:30:49;1.10;;;1.00;;
422;SDS011;198;48.752;9.180;2023-03-21T14:33:24;1.00;;;0.90;;
422;SDS011;198;48.752;9.180;2023-03-21T14:35:59;2.73;;;1.20;;
422;SDS011;198;48.752;9.180;2023-03-21T14:38:32;2.80;;;1.10;;
422;SDS011;198;48.752;9.180;2023-03-21T14:40:59;2.87;;;1.50;;
422;SDS011;198;48.752;9.180;2023-03-21T14:43:25;4.20;;;1.93;;
422;SDS011;198;48.752;9.180;2023-03-21T14:45:52;2.50;;;1.80;;
422;SDS011;198;48.752;9.180;2023-03-21T14:48:20;5.93;;;2.10;;
422;SDS011;198;48.752;9.180;2023-03-21T14:50:54;5.30;;;2.43;;
422;SDS011;198;48.752;9.180;2023-03-21T14:53:22;3.50;;;1.70;;
422;SDS011;198;48.752;9.180;2023-03-21T14:55:58;4.10;;;1.80;;
422;SDS011;198;48.752;9.180;2023-03-21T14:58:27;4.00;;;1.87;;
422;SDS011;198;48.752;9.180;2023-03-21T15:00:55;3.83;;;2.00;;
422;SDS011;198;48.752;9.180;2023-03-21T15:03:24;2.47;;;1.77;;
422;SDS011;198;48.752;9.180;2023-03-21T15:05:51;3.17;;;1.80;;
422;SDS011;198;48.752;9.180;2023-03-21T15:08:20;7.83;;;2.07;;
422;SDS011;198;48.752;9.180;2023-03-21T15:11:00;2.77;;;2.07;;
422;SDS011;198;48.752;9.180;2023-03-21T15:13:31;7.50;;;2.57;;
422;SDS011;198;48.752;9.180;2023-03-21T15:16:02;3.20;;;1.63;;
422;SDS011;198;48.752;9.180;2023-03-21T15:18:30;5.00;;;2.60;;
422;SDS011;198;48.752;9.180;2023-03-21T15:20:57;7.80;;;2.43;;
422;SDS011;198;48.752;9.180;2023-03-21T15:23:31;3.87;;;2.03;;
422;SDS011;198;48.752;9.180;2023-03-21T15:26:03;3.40;;;2.40;;
422;SDS011;198;48.752;9.180;2023-03-21T15:28:30;4.03;;;2.33;;
422;SDS011;198;48.752;9.180;2023-03-21T15:30:58;3.87;;;2.20;;
422;SDS011;198;48.752;9.180;2023-03-21T15:33:24;3.83;;;2.10;;
422;SDS011;198;48.752;9.180;2023-03-21T15:35:54;4.47;;;2.40;;
422;SDS011;198;48.752;9.180;2023-03-21T15:46:41;6.63;;;2.40;;
422;SDS011;198;48.752;9.180;2023-03-21T15:51:46;4.10;;;2.00;;
422;SDS011;198;48.752;9.180;2023-03-21T15:54:32;4.80;;;2.90;;
422;SDS011;198;48.752;9.180;2023-03-21T15:57:19;4.20;;;1.67;;
422;SDS011;198;48.752;9.180;2023-03-21T15:59:54;3.80;;;2.27;;
422;SDS011;198;48.752;9.180;2023-03-21T16:02:23;4.03;;;1.93;;
422;SDS011;198;48.752;9.180;2023-03-21T16:05:00;5.07;;;2.53;;
422;SDS011;198;48.752;9.180;2023-03-21T16:07:45;5.20;;;2.40;;
422;SDS011;198;48.752;9.180;2023-03-21T16:10:30;7.73;;;2.00;;
422;SDS011;198;48.752;9.180;2023-03-21T16:13:01;6.37;;;2.93;;
422;SDS011;198;48.752;9.180;2023-03-21T16:15:27;4.50;;;2.47;;
422;SDS011;198;48.752;9.180;2023-03-21T16:17:53;3.10;;;2.20;;
422;SDS011;198;48.752;9.180;2023-03-21T16:20:22;6.00;;;2.70;;
422;SDS011;198;48.752;9.180;2023-03-21T16:22:49;2.80;;;2.23;;
422;SDS011;198;48.752;9.180;2023-03-21T16:25:15;11.23;;;2.37;;
422;SDS011;198;48.752;9.180;2023-03-21T16:27:41;7.53;;;2.37;;
422;SDS011;198;48.752;9.180;2023-03-21T16:30:10;4.93;;;2.30;;
422;SDS011;198;48.752;9.180;2023-03-21T16:32:37;3.57;;;2.63;;
422;SDS011;198;48.752;9.180;2023-03-21T16:35:02;7.23;;;2.43;;
422;SDS011;198;48.752;9.180;2023-03-21T16:37:28;9.50;;;3.30;;
422;SDS011;198;48.752;9.180;2023-03-21T16:39:54;9.20;;;2.67;;
422;SDS011;198;48.752;9.180;2023-03-21T16:42:19;5.53;;;2.23;;
422;SDS011;198;48.752;9.180;2023-03-21T16:44:45;6.23;;;2.50;;
422;SDS011;198;48.752;9.180;2023-03-21T16:47:12;5.07;;;2.53;;
422;SDS011;198;48.752;9.180;2023-03-21T16:49:38;13.13;;;2.77;;
422;SDS011;198;48.752;9.180;2023-03-21T16:52:04;4.10;;;2.40;;
422;SDS011;198;48.752;9.180;2023-03-21T16:54:30;5.70;;;2.37;;
422;SDS011;198;48.752;9.180;2023-03-21T16:56:56;3.23;;;2.00;;
422;SDS011;198;48.752;9.180;2023-03-21T16:59:23;5.20;;;2.27;;
422;SDS011;198;48.752;9.180;2023-03-21T17:01:49;6.67;;;2.00;;
422;SDS011;198;48.752;9.180;2023-03-21T17:04:15;8.70;;;2.60;;
422;SDS011;198;48.752;9.180;2023-03-21T17:06:46;5.93;;;2.73;;
422;SDS011;198;48.752;9.180;2023-03-21T17:09:13;5.40;;;3.03;;
422;SDS011;198;48.752;9.180;2023-03-21T17:11:41;4.03;;;2.50;;
422;SDS011;198;48.752;9.180;2023-03-21T17:14:07;5.20;;;2.50;;
422;SDS011;198;48.752;9.180;2023-03-21T17:16:35;4.90;;;2.13;;
422;SDS011;198;48.752;9.180;2023-03-21T17:19:08;2.97;;;1.87;;
422;SDS011;198;48.752;9.180;2023-03-21T17:21:38;8.40;;;2.43;;
422;SDS011;198;48.752;9.180;2023-03-21T17:24:03;7.83;;;2.17;;
422;SDS011;198;48.752;9.180;2023-03-21T17:26:29;6.07;;;2.50;;
422;SDS011;198;48.752;9.180;2023-03-21T17:28:55;4.50;;;2.77;;
422;SDS011;198;48.752;9.180;2023-03-21T17:31:22;4.43;;;2.63;;
422;SDS011;198;48.752;9.180;2023-03-21T17:33:49;11.17;;;2.33;;
422;SDS011;198;48.752;9.180;2023-03-21T17:36:16;11.87;;;2.83;;
422;SDS011;198;48.752;9.180;2023-03-21T17:38:44;7.97;;;2.70;;